Time;durP1;ratioP1;P1;durP2;ratioP2;P2;SDS_P1;SDS_P2;PMS_P1;PMS_P2;Temp;Humidity;BMP_temperature;BMP_pressure;BME280_temperature;BME280_humidity;BME280_pressure;Samples;Min_cycle;Max_cycle;Signal;HPM_P1;HPM_P2
2024/01/26 00:01:31;;;;;;;12.77;7.20;;;;;;;;;;5045706;28;20045;-69
2024/01/26 00:03:58;;;;;;;12.02;7.38;;;;;;;;;;5047760;28;20416;-70
2024/01/26 00:06:26;;;;;;;12.90;6.82;;;;;;;;;;5050632;28;20047;-68
2024/01/26 00:08:52;;;;;;;11.98;6.50;;;;;;;;;;5038999;28;20541;-69
2024/01/26 00:11:19;;;;;;;10.63;6.85;;;;;;;;;;5041024;28;20041;-69
2024/01/26 00:13:46;;;;;;;10.52;6.97;;;;;;;;;;5043529;28;20052;-69
2024/01/26 00:16:12;;;;;;;10.75;6.47;;;;;;;;;;5041729;28;20061;-69
2024/01/26 00:18:39;;;;;;;10.77;6.07;;;;;;;;;;5049782;28;20047;-69
2024/01/26 00:21:06;;;;;;;8.98;5.95;;;;;;;;;;5046560;28;20041;-68
2024/01/26 00:23:34;;;;;;;10.02;5.82;;;;;;;;;;5047039;28;20056;-69
2024/01/26 00:26:00;;;;;;;9.15;5.75;;;;;;;;;;5048757;28;20048;-70
2024/01/26 00:28:26;;;;;;;8.88;5.65;;;;;;;;;;5041943;28;20045;-69
2024/01/26 00:30:53;;;;;;;12.43;6.18;;;;;;;;;;5048759;28;20045;-69
2024/01/26 00:33:19;;;;;;;10.32;6.38;;;;;;;;;;5046613;28;20133;-69
2024/01/26 00:35:45;;;;;;;10.00;5.90;;;;;;;;;;5051637;28;20045;-69
2024/01/26 00:38:14;;;;;;;8.85;5.85;;;;;;;;;;5052407;28;20061;-69
2024/01/26 00:40:42;;;;;;;11.68;6.13;;;;;;;;;;5050019;28;20574;-69
2024/01/26 00:43:08;;;;;;;9.45;6.18;;;;;;;;;;5052058;28;20071;-69
2024/01/26 00:45:35;;;;;;;12.13;6.38;;;;;;;;;;5047925;28;20050;-69
2024/01/26 00:48:01;;;;;;;11.57;6.53;;;;;;;;;;5043646;28;20104;-69
2024/01/26 00:50:27;;;;;;;13.13;6.95;;;;;;;;;;5052955;28;20056;-69
2024/01/26 00:52:54;;;;;;;10.77;6.82;;;;;;;;;;5050340;28;20501;-69
2024/01/26 00:55:20;;;;;;;15.52;8.13;;;;;;;;;;5046094;28;20045;-69
2024/01/26 00:57:49;;;;;;;14.10;7.43;;;;;;;;;;5045344;28;20049;-69
2024/01/26 01:00:16;;;;;;;13.68;7.43;;;;;;;;;;5049716;28;20064;-69
2024/01/26 01:02:43;;;;;;;11.35;6.82;;;;;;;;;;5050369;28;20055;-69
2024/01/26 01:05:09;;;;;;;12.50;7.28;;;;;;;;;;5053216;28;20045;-69
2024/01/26 01:07:36;;;;;;;12.25;6.55;;;;;;;;;;5047887;28;20049;-69
2024/01/26 01:10:02;;;;;;;11.20;6.70;;;;;;;;;;5046607;28;20497;-69
2024/01/26 01:12:28;;;;;;;10.45;6.80;;;;;;;;;;5049805;28;20131;-69
2024/01/26 01:14:58;;;;;;;8.43;6.35;;;;;;;;;;5050078;28;20064;-69
2024/01/26 01:17:25;;;;;;;11.60;6.30;;;;;;;;;;5045331;28;20441;-69
2024/01/26 01:19:52;;;;;;;9.85;6.90;;;;;;;;;;5045201;28;20045;-69
2024/01/26 01:22:18;;;;;;;9.63;6.70;;;;;;;;;;5048913;28;20080;-69
2024/01/26 01:24:44;;;;;;;13.18;7.15;;;;;;;;;;5052102;28;20493;-70
2024/01/26 01:27:11;;;;;;;10.90;6.45;;;;;;;;;;5052555;28;20057;-69
2024/01/26 01:29:37;;;;;;;13.20;6.80;;;;;;;;;;5050706;28;20071;-68
2024/01/26 01:32:05;;;;;;;11.10;6.57;;;;;;;;;;5049351;28;20517;-69
2024/01/26 01:34:32;;;;;;;9.10;5.93;;;;;;;;;;5043502;28;20077;-68
2024/01/26 01:36:58;;;;;;;10.68;6.10;;;;;;;;;;5052547;28;20049;-69
2024/01/26 01:39:24;;;;;;;8.68;6.55;;;;;;;;;;5051881;28;20045;-69
2024/01/26 01:41:51;;;;;;;7.88;5.60;;;;;;;;;;5043707;28;20060;-69
2024/01/26 01:44:17;;;;;;;9.52;6.10;;;;;;;;;;5043424;28;20054;-69
2024/01/26 01:46:43;;;;;;;10.77;5.90;;;;;;;;;;5046073;28;20231;-69
2024/01/26 01:49:11;;;;;;;7.38;5.57;;;;;;;;;;5042228;28;20422;-69
2024/01/26 01:51:38;;;;;;;9.32;5.38;;;;;;;;;;5046509;28;20055;-69
2024/01/26 01:54:05;;;;;;;9.27;5.32;;;;;;;;;;5048604;28;20064;-69
2024/01/26 01:56:31;;;;;;;10.13;5.72;;;;;;;;;;5049377;28;20438;-69
2024/01/26 01:58:59;;;;;;;8.00;5.55;;;;;;;;;;5051675;28;20048;-69
2024/01/26 02:01:26;;;;;;;12.20;5.68;;;;;;;;;;5039664;28;20051;-68
2024/01/26 02:03:52;;;;;;;7.63;5.28;;;;;;;;;;5041756;28;20056;-69
2024/01/26 02:06:20;;;;;;;8.88;5.18;;;;;;;;;;5051413;28;20063;-69
2024/01/26 02:08:46;;;;;;;7.80;4.57;;;;;;;;;;5045153;28;20501;-69
2024/01/26 02:11:12;;;;;;;7.00;4.82;;;;;;;;;;5044117;28;20144;-69
2024/01/26 02:13:39;;;;;;;6.53;4.55;;;;;;;;;;5051983;28;20048;-69
2024/01/26 02:16:06;;;;;;;7.90;5.20;;;;;;;;;;5051042;28;20045;-69
2024/01/26 02:18:33;;;;;;;6.43;4.32;;;;;;;;;;5051504;28;20073;-69
2024/01/26 02:21:00;;;;;;;6.68;3.92;;;;;;;;;;5043666;28;20132;-69
2024/01/26 02:23:27;;;;;;;5.85;3.95;;;;;;;;;;5048485;28;20424;-68
2024/01/26 02:25:54;;;;;;;5.63;4.25;;;;;;;;;;5044459;28;20041;-68
2024/01/26 02:28:20;;;;;;;7.95;4.28;;;;;;;;;;5051072;28;20047;-69
2024/01/26 02:30:56;;;;;;;4.22;3.47;;;;;;;;;;5038967;28;20041;-69
2024/01/26 02:33:22;;;;;;;4.78;3.40;;;;;;;;;;5045344;28;20049;-69
2024/01/26 02:35:48;;;;;;;4.63;3.65;;;;;;;;;;5051482;28;20049;-69
2024/01/26 02:38:15;;;;;;;5.00;3.58;;;;;;;;;;5045576;28;20055;-69
2024/01/26 02:40:43;;;;;;;6.55;3.60;;;;;;;;;;5047815;28;20049;-69
2024/01/26 02:43:09;;;;;;;6.18;3.78;;;;;;;;;;5044030;28;20045;-69
2024/01/26 02:45:35;;;;;;;4.72;3.58;;;;;;;;;;5048546;28;20049;-69
2024/01/26 02:48:02;;;;;;;5.72;3.30;;;;;;;;;;5044684;28;20045;-68
2024/01/26 02:50:28;;;;;;;5.35;3.42;;;;;;;;;;5046364;28;20420;-69
2024/01/26 02:52:54;;;;;;;5.07;3.72;;;;;;;;;;5050581;28;20068;-69
2024/01/26 02:55:21;;;;;;;4.82;3.63;;;;;;;;;;5051377;28;20041;-68
2024/01/26 02:57:48;;;;;;;5.22;3.55;;;;;;;;;;5050700;28;20045;-68
2024/01/26 03:00:16;;;;;;;6.35;3.78;;;;;;;;;;5050417;28;20048;-69
2024/01/26 03:02:43;;;;;;;5.03;3.80;;;;;;;;;;5044850;28;20065;-69
2024/01/26 03:05:09;;;;;;;5.13;3.80;;;;;;;;;;5051285;28;20055;-69
2024/01/26 03:07:35;;;;;;;3.97;3.00;;;;;;;;;;5050559;28;20045;-69
2024/01/26 03:10:02;;;;;;;6.00;3.50;;;;;;;;;;5045975;28;20479;-69
2024/01/26 03:12:29;;;;;;;3.65;2.95;;;;;;;;;;5050928;28;20041;-69
2024/01/26 03:14:56;;;;;;;4.00;2.60;;;;;;;;;;5047843;28;20045;-69
2024/01/26 03:17:23;;;;;;;4.95;3.33;;;;;;;;;;5046746;28;20051;-69
2024/01/26 03:19:49;;;;;;;4.70;3.58;;;;;;;;;;5049869;28;20041;-68
2024/01/26 03:22:16;;;;;;;4.22;3.13;;;;;;;;;;5049284;28;20269;-68
2024/01/26 03:24:44;;;;;;;4.93;3.10;;;;;;;;;;5050929;28;20053;-69
2024/01/26 03:27:10;;;;;;;5.43;3.10;;;;;;;;;;5044657;28;20055;-69
2024/01/26 03:29:37;;;;;;;4.97;3.28;;;;;;;;;;5039226;28;20132;-69
2024/01/26 03:32:05;;;;;;;4.93;3.17;;;;;;;;;;5047653;28;20433;-68
2024/01/26 03:34:31;;;;;;;5.90;3.17;;;;;;;;;;5043009;28;20045;-68
2024/01/26 03:36:57;;;;;;;4.30;3.22;;;;;;;;;;5046551;28;20049;-68
2024/01/26 03:39:24;;;;;;;4.40;3.22;;;;;;;;;;5044874;28;20049;-68
2024/01/26 03:41:50;;;;;;;4.95;3.70;;;;;;;;;;5047046;28;20050;-69
2024/01/26 03:44:16;;;;;;;5.40;3.10;;;;;;;;;;5046547;28;20049;-69
2024/01/26 03:46:44;;;;;;;5.45;3.50;;;;;;;;;;5050268;28;20049;-68
2024/01/26 03:49:11;;;;;;;7.18;3.92;;;;;;;;;;5041812;28;20049;-68
2024/01/26 03:51:38;;;;;;;5.60;3.50;;;;;;;;;;5043659;28;20387;-69
2024/01/26 03:54:04;;;;;;;5.57;4.10;;;;;;;;;;5047146;28;20040;-69
2024/01/26 03:56:31;;;;;;;7.57;4.50;;;;;;;;;;5050919;28;20045;-69
2024/01/26 03:58:57;;;;;;;6.22;4.03;;;;;;;;;;5045168;28;20056;-69
2024/01/26 04:01:23;;;;;;;7.05;4.07;;;;;;;;;;5049632;28;20511;-69
2024/01/26 04:03:50;;;;;;;8.20;4.32;;;;;;;;;;5051630;28;20051;-69
2024/01/26 04:06:18;;;;;;;7.18;4.72;;;;;;;;;;5053799;28;20489;-69
2024/01/26 04:08:44;;;;;;;10.13;5.05;;;;;;;;;;5052882;28;20444;-69
2024/01/26 04:11:11;;;;;;;6.97;4.60;;;;;;;;;;5048120;28;20045;-68
2024/01/26 04:13:37;;;;;;;9.15;4.70;;;;;;;;;;5049279;28;20055;-70
2024/01/26 04:16:03;;;;;;;9.15;5.22;;;;;;;;;;5052341;28;20045;-69
2024/01/26 04:18:30;;;;;;;9.57;5.20;;;;;;;;;;5049619;28;20049;-69
2024/01/26 04:20:56;;;;;;;8.77;4.97;;;;;;;;;;5039887;28;20048;-68
2024/01/26 04:23:24;;;;;;;7.35;5.15;;;;;;;;;;5054109;28;20048;-69
2024/01/26 04:25:50;;;;;;;7.70;4.78;;;;;;;;;;5054552;28;20914;-69
2024/01/26 04:28:17;;;;;;;9.38;5.30;;;;;;;;;;5053155;28;20053;-69
2024/01/26 04:30:43;;;;;;;10.02;4.93;;;;;;;;;;5053530;28;20045;-68
2024/01/26 04:33:09;;;;;;;7.15;4.57;;;;;;;;;;5053162;28;20056;-69
2024/01/26 04:35:36;;;;;;;9.00;5.32;;;;;;;;;;5053962;28;20075;-69
2024/01/26 04:38:05;;;;;;;8.35;5.05;;;;;;;;;;5044359;28;20053;-69
2024/01/26 04:40:32;;;;;;;9.02;5.00;;;;;;;;;;5046700;28;20048;-69
2024/01/26 04:42:59;;;;;;;6.70;4.22;;;;;;;;;;5051714;28;20064;-69
2024/01/26 04:45:25;;;;;;;8.50;4.85;;;;;;;;;;5054196;28;20067;-69
2024/01/26 04:47:52;;;;;;;8.82;5.15;;;;;;;;;;5053056;28;20520;-69
2024/01/26 04:50:18;;;;;;;8.80;5.10;;;;;;;;;;5052997;28;20115;-69
2024/01/26 04:52:44;;;;;;;7.53;4.47;;;;;;;;;;5053650;28;20051;-69
2024/01/26 04:55:11;;;;;;;8.60;4.82;;;;;;;;;;5053438;28;20048;-68
2024/01/26 04:57:39;;;;;;;7.45;4.95;;;;;;;;;;5045364;28;20052;-68
2024/01/26 05:00:06;;;;;;;7.22;4.70;;;;;;;;;;5052867;28;20421;-69
2024/01/26 05:02:32;;;;;;;6.80;5.07;;;;;;;;;;5053473;28;20124;-69
2024/01/26 05:04:59;;;;;;;7.07;5.20;;;;;;;;;;5046082;28;20041;-68
2024/01/26 05:07:25;;;;;;;7.47;4.90;;;;;;;;;;5049050;28;20128;-69
2024/01/26 05:09:52;;;;;;;7.07;5.13;;;;;;;;;;5051833;28;20045;-68
2024/01/26 05:12:18;;;;;;;7.50;5.30;;;;;;;;;;5052472;28;20483;-69
2024/01/26 05:14:46;;;;;;;6.32;4.50;;;;;;;;;;5047445;28;20049;-69
2024/01/26 05:17:12;;;;;;;9.65;4.90;;;;;;;;;;5052945;28;20045;-68
2024/01/26 05:19:39;;;;;;;7.25;5.05;;;;;;;;;;5048819;28;20084;-69
2024/01/26 05:22:05;;;;;;;7.07;4.72;;;;;;;;;;5051223;28;20047;-69
2024/01/26 05:24:31;;;;;;;6.90;4.70;;;;;;;;;;5052671;28;20041;-69
2024/01/26 05:26:58;;;;;;;6.07;4.32;;;;;;;;;;5051462;28;20041;-69
2024/01/26 05:29:24;;;;;;;6.60;4.15;;;;;;;;;;5042524;28;20057;-68
2024/01/26 05:31:52;;;;;;;6.20;4.25;;;;;;;;;;5052367;28;20060;-68
2024/01/26 05:34:18;;;;;;;6.32;4.47;;;;;;;;;;5047683;28;20493;-68
2024/01/26 05:36:44;;;;;;;5.20;3.95;;;;;;;;;;5052880;28;20501;-69
2024/01/26 05:39:11;;;;;;;7.82;4.00;;;;;;;;;;5049871;28;20048;-69
2024/01/26 05:41:38;;;;;;;4.80;3.58;;;;;;;;;;5052435;28;20072;-68
2024/01/26 05:44:04;;;;;;;5.75;3.88;;;;;;;;;;5045999;28;20048;-69
2024/01/26 05:46:31;;;;;;;5.88;3.55;;;;;;;;;;5049112;28;20421;-70
2024/01/26 05:48:59;;;;;;;4.88;3.22;;;;;;;;;;5050237;28;20053;-69
2024/01/26 05:51:25;;;;;;;4.93;3.10;;;;;;;;;;5047546;28;20075;-69
2024/01/26 05:53:52;;;;;;;4.78;3.38;;;;;;;;;;5052494;28;20045;-69
2024/01/26 05:56:19;;;;;;;4.70;3.10;;;;;;;;;;5052350;28;20048;-69
2024/01/26 05:58:45;;;;;;;6.07;3.40;;;;;;;;;;5047423;28;20053;-69
2024/01/26 06:01:12;;;;;;;4.50;3.13;;;;;;;;;;5051697;28;20049;-69
2024/01/26 06:03:38;;;;;;;4.10;2.83;;;;;;;;;;5051435;28;20051;-70
2024/01/26 06:06:07;;;;;;;4.28;3.10;;;;;;;;;;5045699;28;20051;-68
2024/01/26 06:08:34;;;;;;;4.35;3.17;;;;;;;;;;5048740;28;20493;-69
2024/01/26 06:11:00;;;;;;;3.92;3.03;;;;;;;;;;5048385;28;20136;-69
2024/01/26 06:13:27;;;;;;;4.53;3.22;;;;;;;;;;5050652;28;20045;-69
2024/01/26 06:15:53;;;;;;;6.78;3.80;;;;;;;;;;5052002;28;20493;-69
2024/01/26 06:18:20;;;;;;;5.15;3.17;;;;;;;;;;5051251;28;20059;-69
2024/01/26 06:20:46;;;;;;;4.50;3.20;;;;;;;;;;5045771;28;20050;-69
2024/01/26 06:23:14;;;;;;;5.28;3.08;;;;;;;;;;5050161;28;20045;-68
2024/01/26 06:25:40;;;;;;;4.45;3.35;;;;;;;;;;5046824;28;20115;-68
2024/01/26 06:28:07;;;;;;;5.60;2.88;;;;;;;;;;5049238;28;20053;-69
2024/01/26 06:30:33;;;;;;;7.82;3.13;;;;;;;;;;5044862;28;20045;-68
2024/01/26 06:32:59;;;;;;;5.47;3.20;;;;;;;;;;5051576;28;20047;-69
2024/01/26 06:35:26;;;;;;;6.00;2.90;;;;;;;;;;5051551;28;20045;-68
2024/01/26 06:37:52;;;;;;;5.00;3.05;;;;;;;;;;5043936;28;20045;-69
2024/01/26 06:40:20;;;;;;;5.15;3.05;;;;;;;;;;5050239;28;20041;-69
2024/01/26 06:42:46;;;;;;;3.42;2.58;;;;;;;;;;5051417;28;20071;-70
2024/01/26 06:45:13;;;;;;;3.63;2.80;;;;;;;;;;5050626;28;20428;-69
2024/01/26 06:47:39;;;;;;;3.13;2.78;;;;;;;;;;5049079;28;20132;-69
2024/01/26 06:50:06;;;;;;;4.55;2.75;;;;;;;;;;5049627;28;20045;-69
2024/01/26 06:52:33;;;;;;;3.72;2.70;;;;;;;;;;5047094;28;20520;-69
2024/01/26 06:54:59;;;;;;;3.47;2.67;;;;;;;;;;5050561;28;20115;-69
2024/01/26 06:57:27;;;;;;;4.45;2.72;;;;;;;;;;5045337;28;20051;-68
2024/01/26 06:59:53;;;;;;;3.72;2.80;;;;;;;;;;5042638;28;20417;-69
2024/01/26 07:02:20;;;;;;;4.57;2.88;;;;;;;;;;5050237;28;20076;-69
2024/01/26 07:04:46;;;;;;;4.90;3.05;;;;;;;;;;5045026;28;20045;-69
2024/01/26 07:07:12;;;;;;;4.55;2.92;;;;;;;;;;5049168;28;20132;-69
2024/01/26 07:09:39;;;;;;;3.75;2.88;;;;;;;;;;5049854;28;20126;-70
2024/01/26 07:12:05;;;;;;;4.57;3.03;;;;;;;;;;5050891;28;20057;-69
2024/01/26 07:14:33;;;;;;;5.15;3.35;;;;;;;;;;5050855;28;20053;-69
2024/01/26 07:16:59;;;;;;;4.40;3.50;;;;;;;;;;5048115;28;20048;-69
2024/01/26 07:19:26;;;;;;;6.18;3.17;;;;;;;;;;5042386;28;20057;-69
2024/01/26 07:21:52;;;;;;;4.28;2.97;;;;;;;;;;5046533;28;20049;-68
2024/01/26 07:24:18;;;;;;;5.90;3.70;;;;;;;;;;5047433;28;20067;-69
2024/01/26 07:26:46;;;;;;;5.32;3.50;;;;;;;;;;5048807;28;20055;-70
2024/01/26 07:29:12;;;;;;;5.22;3.33;;;;;;;;;;5046688;28;20041;-69
2024/01/26 07:31:41;;;;;;;3.75;3.17;;;;;;;;;;5048979;28;20041;-69
2024/01/26 07:34:07;;;;;;;5.05;3.30;;;;;;;;;;5046062;28;20049;-68
2024/01/26 07:36:36;;;;;;;4.55;3.30;;;;;;;;;;5050821;28;20045;-69
2024/01/26 07:39:03;;;;;;;4.50;3.63;;;;;;;;;;5044373;28;20056;-68
2024/01/26 07:41:29;;;;;;;3.70;3.10;;;;;;;;;;5050210;28;20519;-68
2024/01/26 07:43:55;;;;;;;4.75;3.45;;;;;;;;;;5046010;28;20055;-70
2024/01/26 07:46:22;;;;;;;3.55;3.05;;;;;;;;;;5050870;28;20052;-69
2024/01/26 07:48:49;;;;;;;6.15;3.30;;;;;;;;;;5049860;28;20048;-69
2024/01/26 07:51:16;;;;;;;4.80;3.45;;;;;;;;;;5038481;28;20050;-69
2024/01/26 07:53:42;;;;;;;5.28;3.58;;;;;;;;;;5041186;28;20041;-69
2024/01/26 07:56:09;;;;;;;4.15;3.03;;;;;;;;;;5050164;28;20051;-68
2024/01/26 07:58:35;;;;;;;5.53;3.15;;;;;;;;;;5046706;28;20487;-69
2024/01/26 08:01:02;;;;;;;4.65;3.42;;;;;;;;;;5049395;28;20140;-68
2024/01/26 08:03:31;;;;;;;5.30;3.03;;;;;;;;;;5049854;28;20545;-68
2024/01/26 08:05:58;;;;;;;3.70;3.33;;;;;;;;;;5046455;28;20494;-68
2024/01/26 08:08:25;;;;;;;4.47;3.20;;;;;;;;;;5045519;28;20423;-68
2024/01/26 08:10:52;;;;;;;4.72;3.50;;;;;;;;;;5050040;28;20135;-69
2024/01/26 08:13:18;;;;;;;5.97;3.25;;;;;;;;;;5041699;28;20052;-69
2024/01/26 08:15:44;;;;;;;4.47;3.67;;;;;;;;;;5049581;28;20049;-69
2024/01/26 08:18:11;;;;;;;6.50;3.38;;;;;;;;;;5049579;28;20045;-68
2024/01/26 08:20:37;;;;;;;4.70;2.95;;;;;;;;;;5049588;28;20500;-69
2024/01/26 08:23:05;;;;;;;5.95;3.50;;;;;;;;;;5050099;28;20053;-68
2024/01/26 08:25:31;;;;;;;5.03;3.55;;;;;;;;;;5045789;28;20049;-69
2024/01/26 08:27:58;;;;;;;3.35;2.90;;;;;;;;;;5049356;28;20501;-68
2024/01/26 08:30:27;;;;;;;4.50;3.00;;;;;;;;;;5043135;28;20046;-68
2024/01/26 08:32:54;;;;;;;4.00;3.00;;;;;;;;;;5042920;28;20394;-68
2024/01/26 08:35:20;;;;;;;4.95;3.40;;;;;;;;;;5038398;28;20053;-69
2024/01/26 08:37:46;;;;;;;5.22;3.20;;;;;;;;;;5042986;28;20041;-68
2024/01/26 08:40:14;;;;;;;3.85;3.00;;;;;;;;;;5048276;28;20049;-69
2024/01/26 08:42:41;;;;;;;5.18;3.20;;;;;;;;;;5043725;28;20052;-69
2024/01/26 08:45:08;;;;;;;3.63;3.30;;;;;;;;;;5049792;28;20041;-69
2024/01/26 08:47:34;;;;;;;4.13;2.92;;;;;;;;;;5041179;28;20124;-68
2024/01/26 08:50:00;;;;;;;5.80;3.25;;;;;;;;;;5046884;28;20048;-68
2024/01/26 08:52:27;;;;;;;5.53;3.47;;;;;;;;;;5046423;28;20055;-68
2024/01/26 08:54:54;;;;;;;4.07;2.50;;;;;;;;;;5050376;28;20095;-68
2024/01/26 08:57:21;;;;;;;4.90;3.47;;;;;;;;;;5044636;28;21618;-68
2024/01/26 08:59:48;;;;;;;3.33;2.92;;;;;;;;;;5044821;28;20049;-68
2024/01/26 09:02:15;;;;;;;3.90;3.40;;;;;;;;;;5051756;28;20119;-69
2024/01/26 09:04:41;;;;;;;5.55;3.08;;;;;;;;;;5052434;28;20049;-68
2024/01/26 09:07:07;;;;;;;5.68;3.60;;;;;;;;;;5052427;28;20047;-69
2024/01/26 09:09:34;;;;;;;6.43;3.20;;;;;;;;;;5050199;28;20429;-69
2024/01/26 09:12:00;;;;;;;4.90;3.25;;;;;;;;;;5051655;28;20413;-71
2024/01/26 09:14:29;;;;;;;4.53;2.83;;;;;;;;;;5053322;28;20424;-69
2024/01/26 09:16:55;;;;;;;4.85;2.65;;;;;;;;;;5052931;28;20416;-69
2024/01/26 09:19:21;;;;;;;4.03;2.78;;;;;;;;;;5044467;28;20078;-68
2024/01/26 09:21:49;;;;;;;3.42;2.70;;;;;;;;;;5050519;28;20067;-68
2024/01/26 09:24:15;;;;;;;3.67;2.72;;;;;;;;;;5042786;28;20072;-69
2024/01/26 09:26:42;;;;;;;2.70;2.40;;;;;;;;;;5044905;28;20044;-69
2024/01/26 09:29:08;;;;;;;4.93;2.28;;;;;;;;;;5038473;28;20056;-69
2024/01/26 09:31:36;;;;;;;3.15;2.30;;;;;;;;;;5033102;28;20050;-68
2024/01/26 09:34:02;;;;;;;4.22;2.20;;;;;;;;;;5048678;28;20049;-70
2024/01/26 09:36:28;;;;;;;4.65;2.20;;;;;;;;;;5051230;28;20041;-69
2024/01/26 09:38:55;;;;;;;2.90;2.28;;;;;;;;;;5047379;28;20616;-69
2024/01/26 09:41:21;;;;;;;3.10;2.30;;;;;;;;;;5040685;28;20524;-68
2024/01/26 09:43:47;;;;;;;2.58;1.90;;;;;;;;;;5051712;28;20049;-69
2024/01/26 09:46:14;;;;;;;2.88;2.40;;;;;;;;;;5046980;28;20053;-69
2024/01/26 09:48:43;;;;;;;2.13;1.90;;;;;;;;;;5044357;28;20061;-69
2024/01/26 09:51:09;;;;;;;3.35;2.05;;;;;;;;;;5045211;28;20052;-69
2024/01/26 09:53:37;;;;;;;3.38;2.00;;;;;;;;;;5051293;28;20041;-69
2024/01/26 09:56:03;;;;;;;2.22;1.80;;;;;;;;;;5042063;28;20041;-69
2024/01/26 09:58:30;;;;;;;2.47;1.98;;;;;;;;;;5050165;28;20056;-70
2024/01/26 10:00:56;;;;;;;2.30;1.83;;;;;;;;;;5050203;28;20045;-69
2024/01/26 10:03:23;;;;;;;2.25;1.80;;;;;;;;;;5051312;28;20498;-69
2024/01/26 10:05:51;;;;;;;3.42;1.63;;;;;;;;;;5043576;28;20135;-69
2024/01/26 10:08:18;;;;;;;3.05;1.67;;;;;;;;;;5049890;28;20072;-69
2024/01/26 10:10:44;;;;;;;2.90;1.60;;;;;;;;;;5049422;28;20045;-69
2024/01/26 10:13:11;;;;;;;2.78;1.80;;;;;;;;;;5050957;28;20091;-70
2024/01/26 10:15:38;;;;;;;3.70;2.20;;;;;;;;;;5046908;28;20045;-68
2024/01/26 10:18:05;;;;;;;4.90;2.38;;;;;;;;;;5041081;28;20051;-70
2024/01/26 10:20:31;;;;;;;2.45;2.03;;;;;;;;;;5043368;28;20059;-69
2024/01/26 10:22:59;;;;;;;2.08;1.73;;;;;;;;;;5048168;28;20056;-69
2024/01/26 10:25:25;;;;;;;1.98;1.77;;;;;;;;;;5043683;28;20052;-69
2024/01/26 10:27:52;;;;;;;3.03;1.75;;;;;;;;;;5043267;28;20140;-69
2024/01/26 10:30:19;;;;;;;3.50;1.80;;;;;;;;;;5046675;28;20051;-69
2024/01/26 10:32:45;;;;;;;3.67;1.90;;;;;;;;;;5045282;28;20049;-70
2024/01/26 10:35:13;;;;;;;2.35;1.95;;;;;;;;;;5050239;28;20074;-69
2024/01/26 10:37:40;;;;;;;2.10;1.60;;;;;;;;;;5049710;28;20416;-69
2024/01/26 10:40:10;;;;;;;1.90;1.65;;;;;;;;;;5050001;28;20055;-69
2024/01/26 10:42:36;;;;;;;1.80;1.65;;;;;;;;;;5050452;28;20406;-68
2024/01/26 10:45:04;;;;;;;1.73;1.52;;;;;;;;;;5048799;28;20052;-70
2024/01/26 10:47:33;;;;;;;1.73;1.50;;;;;;;;;;5045202;28;20475;-71
2024/01/26 10:50:04;;;;;;;2.45;1.30;;;;;;;;;;5039933;28;20095;-69
2024/01/26 10:52:33;;;;;;;2.70;1.40;;;;;;;;;;5046711;28;20048;-69
2024/01/26 10:54:59;;;;;;;3.47;1.30;;;;;;;;;;5049367;28;20051;-69
2024/01/26 10:57:27;;;;;;;3.78;1.70;;;;;;;;;;5049645;28;20044;-70
2024/01/26 10:59:54;;;;;;;1.65;1.40;;;;;;;;;;5044193;28;20049;-69
2024/01/26 11:02:22;;;;;;;2.00;1.60;;;;;;;;;;5047167;28;20045;-68
2024/01/26 11:04:50;;;;;;;1.85;1.35;;;;;;;;;;5049771;28;20076;-68
2024/01/26 11:07:18;;;;;;;1.95;1.38;;;;;;;;;;5050388;28;20045;-69
2024/01/26 11:09:46;;;;;;;1.42;1.20;;;;;;;;;;5048332;28;20041;-68
2024/01/26 11:12:19;;;;;;;2.22;1.40;;;;;;;;;;5048265;28;20124;-69
2024/01/26 11:14:47;;;;;;;2.17;1.30;;;;;;;;;;5040192;28;20060;-70
2024/01/26 11:17:13;;;;;;;1.73;1.15;;;;;;;;;;5046992;28;20051;-68
2024/01/26 11:19:48;;;;;;;1.25;1.10;;;;;;;;;;5042192;28;20064;-68
2024/01/26 11:22:15;;;;;;;1.85;1.10;;;;;;;;;;5045821;28;20406;-68
2024/01/26 11:24:43;;;;;;;5.05;1.58;;;;;;;;;;5049673;28;20162;-69
2024/01/26 11:27:10;;;;;;;2.63;1.20;;;;;;;;;;5034171;28;20577;-69
2024/01/26 11:29:37;;;;;;;1.45;1.30;;;;;;;;;;5048474;28;20527;-68
2024/01/26 11:32:17;;;;;;;1.63;1.10;;;;;;;;;;5042038;28;20087;-68
2024/01/26 11:34:43;;;;;;;2.22;1.20;;;;;;;;;;5044871;28;20048;-68
2024/01/26 11:37:11;;;;;;;1.63;1.20;;;;;;;;;;5044277;28;20052;-68
2024/01/26 11:39:38;;;;;;;1.77;1.27;;;;;;;;;;5040243;28;20048;-68
2024/01/26 11:42:07;;;;;;;1.65;1.17;;;;;;;;;;5046249;28;20055;-67
2024/01/26 11:44:36;;;;;;;2.53;1.65;;;;;;;;;;5043408;28;20045;-69
2024/01/26 11:47:03;;;;;;;3.50;1.20;;;;;;;;;;5046382;28;20489;-67
2024/01/26 11:49:30;;;;;;;1.65;1.35;;;;;;;;;;5042170;28;20049;-68
2024/01/26 11:51:57;;;;;;;1.33;1.23;;;;;;;;;;5046279;28;20124;-68
2024/01/26 11:54:24;;;;;;;1.60;1.17;;;;;;;;;;5049903;28;20057;-68
2024/01/26 11:56:50;;;;;;;1.15;1.05;;;;;;;;;;5046611;28;20416;-68
2024/01/26 11:59:16;;;;;;;3.28;1.40;;;;;;;;;;5049458;28;20052;-68
2024/01/26 12:01:43;;;;;;;1.38;1.08;;;;;;;;;;5049737;28;20137;-68
2024/01/26 12:04:09;;;;;;;2.78;1.40;;;;;;;;;;5049439;28;20049;-69
2024/01/26 12:06:37;;;;;;;1.40;1.30;;;;;;;;;;5045915;28;20045;-68
2024/01/26 12:09:04;;;;;;;1.35;1.20;;;;;;;;;;5046269;28;20049;-68
2024/01/26 12:11:30;;;;;;;2.67;1.50;;;;;;;;;;5042765;28;20154;-68
2024/01/26 12:13:57;;;;;;;1.15;1.00;;;;;;;;;;5048892;28;20047;-68
2024/01/26 12:16:23;;;;;;;1.55;1.27;;;;;;;;;;5035833;28;20049;-69
2024/01/26 12:18:50;;;;;;;2.75;1.40;;;;;;;;;;5044130;28;20048;-69
2024/01/26 12:21:16;;;;;;;1.70;1.30;;;;;;;;;;5047391;28;20421;-69
2024/01/26 12:23:48;;;;;;;2.65;1.48;;;;;;;;;;5047871;28;20118;-68
2024/01/26 12:26:15;;;;;;;5.40;2.80;;;;;;;;;;5052116;28;20419;-68
2024/01/26 12:28:42;;;;;;;2.53;1.60;;;;;;;;;;5052131;28;20053;-68
2024/01/26 12:31:08;;;;;;;4.20;2.53;;;;;;;;;;5051099;28;20045;-70
2024/01/26 12:33:35;;;;;;;1.80;1.50;;;;;;;;;;5053153;28;20051;-68
2024/01/26 12:36:01;;;;;;;2.50;1.30;;;;;;;;;;5053966;28;20052;-70
2024/01/26 12:38:28;;;;;;;3.03;1.48;;;;;;;;;;5053248;28;20055;-68
2024/01/26 12:40:56;;;;;;;0.85;0.80;;;;;;;;;;5042482;28;20159;-67
2024/01/26 12:43:23;;;;;;;1.13;0.90;;;;;;;;;;5044936;28;20045;-69
2024/01/26 12:45:50;;;;;;;0.45;0.45;;;;;;;;;;5045682;28;20416;-67
2024/01/26 12:48:16;;;;;;;0.75;0.75;;;;;;;;;;5046510;28;20068;-68
2024/01/26 12:50:42;;;;;;;0.77;0.77;;;;;;;;;;5042740;28;20049;-68
2024/01/26 12:53:10;;;;;;;0.80;0.75;;;;;;;;;;5044731;28;20052;-68
2024/01/26 12:55:36;;;;;;;2.10;0.88;;;;;;;;;;5047081;28;20506;-68
2024/01/26 12:58:04;;;;;;;2.08;0.85;;;;;;;;;;5053326;28;20416;-68
2024/01/26 13:00:31;;;;;;;1.02;0.70;;;;;;;;;;5049798;28;20045;-69
2024/01/26 13:02:57;;;;;;;2.65;1.02;;;;;;;;;;5046235;28;20091;-67
2024/01/26 13:05:24;;;;;;;2.35;1.17;;;;;;;;;;5042849;28;20049;-67
2024/01/26 13:07:50;;;;;;;3.88;1.15;;;;;;;;;;5049835;28;20511;-67
2024/01/26 13:10:17;;;;;;;2.10;1.00;;;;;;;;;;5045894;28;20045;-68
2024/01/26 13:12:43;;;;;;;1.38;1.13;;;;;;;;;;5053809;28;20051;-67
2024/01/26 13:15:12;;;;;;;1.35;1.10;;;;;;;;;;5051999;28;20053;-68
2024/01/26 13:17:39;;;;;;;1.77;1.10;;;;;;;;;;5034094;28;20067;-68
2024/01/26 13:20:07;;;;;;;2.58;1.30;;;;;;;;;;5051532;28;20040;-67
2024/01/26 13:22:35;;;;;;;3.22;1.45;;;;;;;;;;5047535;28;20095;-67
2024/01/26 13:25:01;;;;;;;3.80;1.50;;;;;;;;;;5043614;28;20056;-68
2024/01/26 13:27:28;;;;;;;3.75;1.30;;;;;;;;;;5045959;28;20054;-67
2024/01/26 13:29:54;;;;;;;5.22;1.30;;;;;;;;;;5044227;28;20055;-68
2024/01/26 13:32:22;;;;;;;4.63;1.58;;;;;;;;;;5041465;28;20077;-67
2024/01/26 13:34:48;;;;;;;2.72;1.80;;;;;;;;;;5051617;28;20045;-70
2024/01/26 13:37:15;;;;;;;3.35;1.30;;;;;;;;;;5047699;28;20049;-67
2024/01/26 13:39:42;;;;;;;4.85;1.40;;;;;;;;;;5047054;28;20056;-67
2024/01/26 13:42:08;;;;;;;5.53;1.50;;;;;;;;;;5053326;28;20052;-68
2024/01/26 13:44:35;;;;;;;4.85;1.50;;;;;;;;;;5049023;28;20400;-68
2024/01/26 13:47:01;;;;;;;2.30;1.30;;;;;;;;;;5050796;28;20069;-67
2024/01/26 13:49:29;;;;;;;3.60;1.70;;;;;;;;;;5039959;28;20045;-68
2024/01/26 13:51:55;;;;;;;3.03;1.77;;;;;;;;;;5052688;28;20422;-70
2024/01/26 13:54:22;;;;;;;3.88;1.70;;;;;;;;;;5053276;28;20418;-69
2024/01/26 13:56:53;;;;;;;6.10;2.10;;;;;;;;;;5050040;28;20067;-68
2024/01/26 13:59:19;;;;;;;5.25;1.70;;;;;;;;;;5051221;28;20062;-67
2024/01/26 14:01:46;;;;;;;4.13;1.80;;;;;;;;;;5048191;28;20065;-67
2024/01/26 14:04:12;;;;;;;3.08;1.63;;;;;;;;;;5048897;28;20497;-67
2024/01/26 14:06:40;;;;;;;1.95;1.00;;;;;;;;;;5046506;28;20049;-68
2024/01/26 14:09:07;;;;;;;3.22;1.48;;;;;;;;;;5051310;28;20507;-68
2024/01/26 14:11:34;;;;;;;3.10;1.10;;;;;;;;;;5052167;28;20067;-69
2024/01/26 14:14:01;;;;;;;4.55;1.20;;;;;;;;;;5052190;28;20103;-67
2024/01/26 14:16:28;;;;;;;2.67;1.55;;;;;;;;;;5048678;28;20044;-68
2024/01/26 14:18:54;;;;;;;1.95;1.08;;;;;;;;;;5048354;28;20076;-68
2024/01/26 14:21:21;;;;;;;2.55;0.90;;;;;;;;;;5047958;28;20099;-68
2024/01/26 14:23:49;;;;;;;4.00;1.73;;;;;;;;;;5044478;28;20459;-68
2024/01/26 14:26:15;;;;;;;1.58;1.05;;;;;;;;;;5042408;28;20050;-67
2024/01/26 14:28:41;;;;;;;1.48;0.77;;;;;;;;;;5043921;28;20045;-67
2024/01/26 14:31:08;;;;;;;3.28;1.20;;;;;;;;;;5050231;28;20040;-68
2024/01/26 14:33:34;;;;;;;3.83;1.27;;;;;;;;;;5041990;28;20041;-69
2024/01/26 14:36:02;;;;;;;2.90;1.00;;;;;;;;;;5049787;28;20052;-68
2024/01/26 14:38:29;;;;;;;3.15;1.30;;;;;;;;;;5043881;28;20056;-68